createdAt,value
2023-01-28T00:00:55.041Z,1.00
2023-01-28T00:03:22.490Z,1.00
2023-01-28T00:05:49.888Z,1.00
2023-01-28T00:08:17.291Z,1.00
2023-01-28T00:10:44.539Z,1.00
2023-01-28T00:13:16.296Z,1.00
2023-01-28T00:15:43.537Z,1.00
2023-01-28T00:18:10.836Z,1.00
2023-01-28T00:20:38.170Z,1.00
2023-01-28T00:23:05.913Z,1.10
2023-01-28T00:25:33.182Z,1.10
2023-01-28T00:28:00.500Z,1.10
2023-01-28T00:30:27.720Z,1.10
2023-01-28T00:32:56.708Z,1.10
2023-01-28T00:35:24.106Z,1.10
2023-01-28T00:37:51.421Z,1.10
2023-01-28T00:40:19.084Z,1.10
2023-01-28T00:42:46.513Z,1.10
2023-01-28T00:45:15.443Z,1.10
2023-01-28T00:47:45.519Z,1.10
2023-01-28T00:50:13.512Z,1.10
2023-01-28T00:52:41.209Z,1.10
2023-01-28T00:55:11.633Z,1.10
2023-01-28T00:57:38.923Z,1.10
2023-01-28T01:00:06.873Z,1.20
2023-01-28T01:02:34.058Z,1.20
2023-01-28T01:05:01.372Z,1.20
2023-01-28T01:07:42.345Z,1.20
2023-01-28T01:10:14.155Z,1.20
2023-01-28T01:12:41.670Z,1.20
2023-01-28T01:15:10.587Z,1.20
2023-01-28T01:17:39.410Z,1.20
2023-01-28T01:20:09.919Z,1.20
2023-01-28T01:22:37.542Z,1.20
2023-01-28T01:25:06.385Z,1.20
2023-01-28T01:27:33.686Z,1.20
2023-01-28T01:30:01.087Z,1.20
2023-01-28T01:32:35.187Z,1.20
2023-01-28T01:35:03.425Z,1.20
2023-01-28T01:37:30.752Z,1.20
2023-01-28T01:39:58.064Z,1.10
2023-01-28T01:42:26.029Z,1.20
2023-01-28T01:45:02.863Z,1.20
2023-01-28T01:47:39.377Z,1.20
2023-01-28T01:50:24.740Z,1.20
2023-01-28T01:52:55.133Z,1.20
2023-01-28T01:55:25.803Z,1.20
2023-01-28T01:57:56.047Z,1.20
2023-01-28T02:00:24.622Z,1.20
2023-01-28T02:02:53.909Z,1.20
2023-01-28T02:05:23.385Z,1.20
2023-01-28T02:07:55.307Z,1.20
2023-01-28T02:10:23.780Z,1.20
2023-01-28T02:12:58.073Z,1.20
2023-01-28T02:15:29.842Z,1.20
2023-01-28T02:17:57.593Z,1.20
2023-01-28T02:21:06.083Z,1.20
2023-01-28T02:23:36.438Z,1.20
2023-01-28T02:26:26.229Z,1.20
2023-01-28T02:29:18.179Z,1.20
2023-01-28T02:31:55.760Z,1.20
2023-01-28T02:34:45.522Z,1.30
2023-01-28T02:37:18.433Z,1.20
2023-01-28T02:39:52.993Z,1.20
2023-01-28T02:42:30.772Z,1.20
2023-01-28T02:44:58.669Z,1.30
2023-01-28T02:47:45.389Z,1.30
2023-01-28T02:50:15.795Z,1.30
2023-01-28T02:53:25.950Z,1.30
2023-01-28T02:56:12.122Z,1.30
2023-01-28T02:58:47.452Z,1.30
2023-01-28T03:01:29.274Z,1.30
2023-01-28T03:04:16.248Z,1.30
2023-01-28T03:06:52.348Z,1.30
2023-01-28T03:09:24.450Z,1.40
2023-01-28T03:12:13.154Z,1.30
2023-01-28T03:15:00.526Z,1.40
2023-01-28T03:17:57.357Z,1.30
2023-01-28T03:20:47.980Z,1.30
2023-01-28T03:23:39.320Z,1.30
2023-01-28T03:26:27.505Z,1.30
2023-01-28T03:29:14.593Z,1.30
2023-01-28T03:32:01.020Z,1.40
2023-01-28T03:34:47.221Z,1.40
2023-01-28T03:37:15.288Z,1.30
2023-01-28T03:39:48.648Z,1.30
2023-01-28T03:42:18.656Z,1.30
2023-01-28T03:44:55.398Z,1.30
2023-01-28T03:47:28.235Z,1.30
2023-01-28T03:49:57.479Z,1.30
2023-01-28T03:52:27.631Z,1.30
2023-01-28T03:55:13.469Z,1.30
2023-01-28T03:57:41.857Z,1.30
2023-01-28T04:00:11.065Z,1.40
2023-01-28T04:02:44.370Z,1.30
2023-01-28T04:05:16.507Z,1.30
2023-01-28T04:07:51.815Z,1.30
2023-01-28T04:10:38.537Z,1.40
2023-01-28T04:13:13.610Z,1.30
2023-01-28T04:15:43.486Z,1.30
2023-01-28T04:18:12.713Z,1.30
2023-01-28T04:20:40.417Z,1.30
2023-01-28T04:23:08.086Z,1.30
2023-01-28T04:25:35.993Z,1.30
2023-01-28T04:28:06.523Z,1.30
2023-01-28T04:30:34.829Z,1.30
2023-01-28T04:33:08.206Z,1.30
2023-01-28T04:35:54.173Z,1.30
2023-01-28T04:38:41.770Z,1.20
2023-01-28T04:41:27.810Z,1.20
2023-01-28T04:43:58.957Z,1.20
2023-01-28T04:46:26.148Z,1.20
2023-01-28T04:49:03.675Z,1.20
2023-01-28T04:51:41.081Z,1.20
2023-01-28T04:54:31.467Z,1.20
2023-01-28T04:57:01.950Z,1.20
2023-01-28T04:59:29.901Z,1.20
2023-01-28T05:01:57.224Z,1.20
2023-01-28T05:04:24.703Z,1.20
2023-01-28T05:06:52.799Z,1.20
2023-01-28T05:09:24.773Z,1.20
2023-01-28T05:11:52.407Z,1.20
2023-01-28T05:14:19.722Z,1.20
2023-01-28T05:17:07.300Z,1.20
2023-01-28T05:19:34.698Z,1.20
2023-01-28T05:22:02.980Z,1.30
2023-01-28T05:24:40.098Z,1.20
2023-01-28T05:27:07.640Z,1.20
2023-01-28T05:29:34.996Z,1.20
2023-01-28T05:32:02.335Z,1.30
2023-01-28T05:34:30.813Z,1.20
2023-01-28T05:37:00.999Z,1.20
2023-01-28T05:39:31.997Z,1.20
2023-01-28T05:41:59.735Z,1.20
2023-01-28T05:44:27.081Z,1.20
2023-01-28T05:47:14.583Z,1.20
2023-01-28T05:49:51.214Z,1.20
2023-01-28T05:52:45.085Z,1.20
2023-01-28T05:55:21.769Z,1.20
2023-01-28T05:57:49.941Z,1.20
2023-01-28T06:00:19.554Z,1.20
2023-01-28T06:02:46.968Z,1.20
2023-01-28T06:05:16.005Z,1.20
2023-01-28T06:07:48.383Z,1.20
2023-01-28T06:10:18.149Z,1.20
2023-01-28T06:12:45.946Z,1.20
2023-01-28T06:15:36.156Z,1.20
2023-01-28T06:18:15.254Z,1.20
2023-01-28T06:20:42.489Z,1.20
2023-01-28T06:23:10.463Z,1.20
2023-01-28T06:25:37.762Z,1.20
2023-01-28T06:28:10.114Z,1.20
2023-01-28T06:30:37.411Z,1.20
2023-01-28T06:33:04.766Z,1.20
2023-01-28T06:35:32.009Z,1.20
2023-01-28T06:37:59.298Z,1.20
2023-01-28T06:40:26.746Z,1.20
2023-01-28T06:42:54.191Z,1.20
2023-01-28T06:45:21.440Z,1.20
2023-01-28T06:47:48.669Z,1.20
2023-01-28T06:50:16.724Z,1.20
2023-01-28T06:52:44.158Z,1.20
2023-01-28T06:55:11.496Z,1.20
2023-01-28T06:57:40.403Z,1.10
2023-01-28T07:00:10.842Z,1.20
2023-01-28T07:02:38.392Z,1.20
2023-01-28T07:05:06.525Z,1.20
2023-01-28T07:07:34.454Z,1.20
2023-01-28T07:10:01.689Z,1.20
2023-01-28T07:12:29.417Z,1.20
2023-01-28T07:14:56.749Z,1.20
2023-01-28T07:17:26.262Z,1.20
2023-01-28T07:19:54.263Z,1.20
2023-01-28T07:22:21.522Z,1.30
2023-01-28T07:24:49.413Z,1.30
2023-01-28T07:27:16.622Z,1.30
2023-01-28T07:29:43.817Z,1.30
2023-01-28T07:32:11.078Z,1.30
2023-01-28T07:34:40.097Z,1.30
2023-01-28T07:37:07.322Z,1.30
2023-01-28T07:39:34.941Z,1.40
2023-01-28T07:42:02.507Z,1.40
2023-01-28T07:44:37.699Z,1.40
2023-01-28T07:47:06.571Z,1.50
2023-01-28T07:49:34.757Z,1.50
2023-01-28T07:52:02.359Z,1.50
2023-01-28T07:54:29.562Z,1.50
2023-01-28T07:56:56.862Z,1.60
2023-01-28T07:59:24.295Z,1.60
2023-01-28T08:01:53.539Z,1.60
2023-01-28T08:04:22.091Z,1.70
2023-01-28T08:06:49.493Z,1.70
2023-01-28T08:09:16.753Z,1.70
2023-01-28T08:11:43.999Z,1.70
2023-01-28T08:14:11.906Z,1.70
2023-01-28T08:16:39.069Z,1.80
2023-01-28T08:19:06.581Z,1.80
2023-01-28T08:21:33.876Z,1.80
2023-01-28T08:24:01.162Z,1.80
2023-01-28T08:26:28.387Z,1.80
2023-01-28T08:28:55.737Z,1.90
2023-01-28T08:31:23.063Z,2.00
2023-01-28T08:33:50.427Z,2.00
2023-01-28T08:36:17.757Z,2.00
2023-01-28T08:38:45.105Z,2.00
2023-01-28T08:41:12.341Z,2.00
2023-01-28T08:43:39.556Z,2.00
2023-01-28T08:46:07.913Z,2.10
2023-01-28T08:48:35.157Z,2.10
2023-01-28T08:51:02.478Z,2.10
2023-01-28T08:53:29.671Z,2.20
2023-01-28T08:55:56.830Z,2.30
2023-01-28T08:58:24.318Z,2.30
2023-01-28T09:00:51.609Z,2.40
2023-01-28T09:03:18.940Z,2.50
2023-01-28T09:05:46.336Z,2.50
2023-01-28T09:08:15.410Z,2.40
2023-01-28T09:10:43.118Z,2.40
2023-01-28T09:13:13.220Z,2.40
2023-01-28T09:15:41.033Z,2.50
2023-01-28T09:18:08.603Z,2.60
2023-01-28T09:20:36.846Z,2.60
2023-01-28T09:23:04.480Z,2.60
2023-01-28T09:25:32.147Z,2.70
2023-01-28T09:27:59.515Z,2.70
2023-01-28T09:30:26.916Z,2.80
2023-01-28T09:32:55.378Z,2.80
2023-01-28T09:35:22.873Z,2.90
2023-01-28T09:37:50.633Z,2.90
2023-01-28T09:40:26.136Z,2.90
2023-01-28T09:43:21.175Z,2.90
2023-01-28T09:45:50.921Z,2.90
2023-01-28T09:48:21.857Z,2.80
2023-01-28T09:50:54.805Z,2.90
2023-01-28T09:53:24.935Z,2.80
2023-01-28T09:55:57.078Z,2.80
2023-01-28T09:58:24.324Z,2.80
2023-01-28T10:01:30.808Z,2.90
2023-01-28T10:04:39.231Z,3.00
2023-01-28T10:07:18.520Z,3.10
2023-01-28T10:10:12.843Z,3.20
2023-01-28T10:12:54.552Z,3.30
2023-01-28T10:15:54.007Z,3.40
2023-01-28T10:18:35.441Z,3.40
2023-01-28T10:21:13.227Z,3.40
2023-01-28T10:24:03.628Z,3.40
2023-01-28T10:26:36.431Z,3.40
2023-01-28T10:29:17.333Z,3.40
2023-01-28T10:32:01.076Z,3.50
2023-01-28T10:34:28.431Z,3.60
2023-01-28T10:36:58.175Z,3.50
2023-01-28T10:39:26.872Z,3.60
2023-01-28T10:41:58.697Z,3.70
2023-01-28T10:44:37.963Z,3.80
2023-01-28T10:47:31.025Z,4.00
2023-01-28T10:50:00.131Z,4.20
2023-01-28T10:52:27.330Z,4.50
2023-01-28T10:55:06.217Z,4.70
2023-01-28T10:57:34.795Z,4.80
2023-01-28T11:00:36.988Z,4.80
2023-01-28T11:03:04.615Z,4.90
2023-01-28T11:05:32.215Z,5.10
2023-01-28T11:08:15.572Z,5.30
2023-01-28T11:10:43.927Z,5.40
2023-01-28T11:13:28.368Z,5.40
2023-01-28T11:16:02.921Z,5.10
2023-01-28T11:18:35.273Z,5.00
2023-01-28T11:21:07.455Z,4.80
2023-01-28T11:23:41.369Z,4.80
2023-01-28T11:26:17.159Z,4.60
2023-01-28T11:28:45.119Z,4.50
2023-01-28T11:31:16.320Z,4.30
2023-01-28T11:33:53.171Z,4.20
2023-01-28T11:36:23.294Z,4.20
2023-01-28T11:38:58.235Z,4.00
2023-01-28T11:41:36.976Z,4.00
2023-01-28T11:44:21.205Z,4.00
2023-01-28T11:47:06.339Z,3.90
2023-01-28T11:49:42.938Z,3.90
2023-01-28T11:52:55.316Z,3.90
2023-01-28T11:56:03.313Z,3.90
2023-01-28T11:59:14.187Z,4.00
2023-01-28T12:02:19.521Z,4.10
2023-01-28T12:05:17.935Z,4.10
2023-01-28T12:07:45.211Z,4.10
2023-01-28T12:10:43.962Z,4.10
2023-01-28T12:13:45.349Z,4.00
2023-01-28T12:16:47.871Z,4.00
2023-01-28T12:19:36.264Z,4.00
2023-01-28T12:22:22.138Z,3.90
2023-01-28T12:25:10.639Z,3.90
2023-01-28T12:27:41.164Z,3.60
2023-01-28T12:30:17.457Z,3.50
2023-01-28T12:32:48.001Z,3.40
2023-01-28T12:35:22.462Z,3.40
2023-01-28T12:38:00.352Z,3.40
2023-01-28T12:40:45.862Z,3.20
2023-01-28T12:43:41.602Z,3.20
2023-01-28T12:46:12.157Z,3.20
2023-01-28T12:48:50.003Z,3.10
2023-01-28T12:51:30.915Z,3.10
2023-01-28T12:54:02.069Z,3.00
2023-01-28T12:56:37.444Z,2.90
2023-01-28T12:59:14.518Z,3.00
2023-01-28T13:01:48.104Z,2.90
2023-01-28T13:04:53.728Z,2.90
2023-01-28T13:07:47.173Z,3.00
2023-01-28T13:10:30.174Z,3.10
2023-01-28T13:12:59.191Z,3.10
2023-01-28T13:15:26.760Z,3.10
2023-01-28T13:18:00.195Z,3.20
2023-01-28T13:20:56.813Z,3.20
2023-01-28T13:23:39.864Z,3.30
2023-01-28T13:26:37.372Z,3.40
2023-01-28T13:29:21.825Z,3.30
2023-01-28T13:31:52.469Z,3.40
2023-01-28T13:34:44.331Z,3.40
2023-01-28T13:37:29.959Z,3.40
2023-01-28T13:40:15.002Z,3.40
2023-01-28T13:42:42.587Z,3.40
2023-01-28T13:45:16.049Z,3.50
2023-01-28T13:47:50.557Z,3.40
2023-01-28T13:50:27.963Z,3.50
2023-01-28T13:53:21.797Z,3.60
2023-01-28T13:55:51.964Z,3.50
2023-01-28T13:59:05.964Z,3.50
2023-01-28T14:02:16.562Z,3.50
2023-01-28T14:04:52.701Z,3.50
2023-01-28T14:07:35.223Z,3.60
2023-01-28T14:10:17.823Z,3.50
2023-01-28T14:13:10.437Z,3.50
2023-01-28T14:15:52.075Z,3.40
2023-01-28T14:18:32.019Z,3.30
2023-01-28T14:21:02.879Z,3.20
2023-01-28T14:23:32.514Z,3.10
2023-01-28T14:26:39.289Z,3.10
2023-01-28T14:29:15.718Z,3.00
2023-01-28T14:31:43.420Z,3.00
2023-01-28T14:34:13.435Z,2.90
2023-01-28T14:36:43.454Z,2.80
2023-01-28T14:39:26.375Z,2.80
2023-01-28T14:41:56.635Z,2.70
2023-01-28T14:44:37.497Z,2.70
2023-01-28T14:47:07.604Z,2.70
2023-01-28T14:49:49.832Z,2.50
2023-01-28T14:52:35.683Z,2.50
2023-01-28T14:55:25.879Z,2.30
2023-01-28T14:57:59.897Z,2.40
2023-01-28T15:00:30.639Z,2.30
2023-01-28T15:02:58.110Z,2.10
2023-01-28T15:05:28.337Z,2.10
2023-01-28T15:07:56.383Z,2.00
2023-01-28T15:10:36.895Z,1.90
2023-01-28T15:13:32.767Z,1.90
2023-01-28T15:16:00.931Z,1.80
2023-01-28T15:18:55.608Z,1.80
2023-01-28T15:21:25.409Z,1.80
2023-01-28T15:23:57.417Z,1.70
2023-01-28T15:26:25.829Z,1.60
2023-01-28T15:28:55.729Z,1.60
2023-01-28T15:31:29.104Z,1.50
2023-01-28T15:34:14.045Z,1.50
2023-01-28T15:36:41.838Z,1.40
2023-01-28T15:39:21.673Z,1.30
2023-01-28T15:41:57.432Z,1.30
2023-01-28T15:44:29.275Z,1.30
2023-01-28T15:46:57.454Z,1.30
2023-01-28T15:49:28.679Z,1.20
2023-01-28T15:51:55.997Z,1.20
2023-01-28T15:54:25.045Z,1.10
2023-01-28T15:56:52.412Z,1.10
2023-01-28T15:59:28.233Z,1.10
2023-01-28T16:02:18.708Z,1.10
2023-01-28T16:05:09.339Z,1.20
2023-01-28T16:07:46.340Z,1.10
2023-01-28T16:10:28.486Z,1.10
2023-01-28T16:13:06.310Z,1.10
2023-01-28T16:15:34.568Z,1.00
2023-01-28T16:18:04.060Z,1.00
2023-01-28T16:20:32.788Z,1.00
2023-01-28T16:23:04.175Z,1.00
2023-01-28T16:25:39.388Z,0.90
2023-01-28T16:28:18.967Z,0.90
2023-01-28T16:30:46.380Z,0.90
2023-01-28T16:33:21.015Z,0.80
2023-01-28T16:36:05.500Z,0.90
2023-01-28T16:38:34.875Z,0.80
2023-01-28T16:41:02.327Z,0.90
2023-01-28T16:43:29.662Z,0.90
2023-01-28T16:45:57.214Z,0.90
2023-01-28T16:48:25.050Z,0.80
2023-01-28T16:50:52.529Z,0.70
2023-01-28T16:53:32.441Z,0.70
2023-01-28T16:56:00.487Z,0.70
2023-01-28T16:58:28.933Z,0.60
2023-01-28T17:00:59.789Z,0.70
2023-01-28T17:03:27.296Z,0.70
2023-01-28T17:05:54.674Z,0.70
2023-01-28T17:08:21.965Z,0.70
2023-01-28T17:10:57.037Z,0.60
2023-01-28T17:13:24.510Z,0.70
2023-01-28T17:15:53.013Z,0.70
2023-01-28T17:18:20.392Z,0.60
2023-01-28T17:20:47.783Z,0.60
2023-01-28T17:23:17.119Z,0.70
2023-01-28T17:25:44.437Z,0.60
2023-01-28T17:28:11.770Z,0.70
2023-01-28T17:30:41.501Z,0.60
2023-01-28T17:33:09.489Z,0.70
2023-01-28T17:35:37.241Z,0.70
2023-01-28T17:38:05.535Z,0.60
2023-01-28T17:40:33.269Z,0.60
2023-01-28T17:43:00.639Z,0.60
2023-01-28T17:45:31.338Z,0.60
2023-01-28T17:47:58.749Z,0.70
2023-01-28T17:50:26.556Z,0.60
2023-01-28T17:52:55.605Z,0.60
2023-01-28T17:55:24.327Z,0.60
2023-01-28T17:57:51.965Z,0.60
2023-01-28T18:00:20.016Z,0.60
2023-01-28T18:02:50.335Z,0.50
2023-01-28T18:05:18.096Z,0.50
2023-01-28T18:07:46.285Z,0.50
2023-01-28T18:10:15.077Z,0.50
2023-01-28T18:12:42.556Z,0.40
2023-01-28T18:15:11.315Z,0.40
2023-01-28T18:17:38.818Z,0.40
2023-01-28T18:20:06.699Z,0.30
2023-01-28T18:22:34.252Z,0.30
2023-01-28T18:25:01.649Z,0.30
2023-01-28T18:27:28.797Z,0.20
2023-01-28T18:29:57.685Z,0.30
2023-01-28T18:32:25.977Z,0.30
2023-01-28T18:34:53.321Z,0.30
2023-01-28T18:37:20.581Z,0.30
2023-01-28T18:39:47.838Z,0.30
2023-01-28T18:42:15.123Z,0.30
2023-01-28T18:44:42.486Z,0.30
2023-01-28T18:47:09.799Z,0.30
2023-01-28T18:49:37.091Z,0.30
2023-01-28T18:52:04.432Z,0.30
2023-01-28T18:54:31.791Z,0.30
2023-01-28T18:56:59.821Z,0.30
2023-01-28T18:59:27.281Z,0.30
2023-01-28T19:01:54.756Z,0.20
2023-01-28T19:04:22.681Z,0.20
2023-01-28T19:06:50.146Z,0.10
2023-01-28T19:09:17.957Z,0.00
2023-01-28T19:11:46.180Z,0.00
2023-01-28T19:14:14.834Z,0.00
2023-01-28T19:16:42.387Z,-0.10
2023-01-28T19:19:10.014Z,-0.10
2023-01-28T19:21:38.112Z,-0.10
2023-01-28T19:24:09.900Z,-0.10
2023-01-28T19:26:37.709Z,-0.10
2023-01-28T19:29:09.419Z,-0.10
2023-01-28T19:31:37.101Z,-0.20
2023-01-28T19:34:05.323Z,-0.20
2023-01-28T19:36:34.020Z,-0.20
2023-01-28T19:39:05.201Z,-0.10
2023-01-28T19:41:32.491Z,-0.20
2023-01-28T19:43:59.791Z,-0.20
2023-01-28T19:46:27.517Z,-0.20
2023-01-28T19:48:55.088Z,-0.30
2023-01-28T19:51:23.146Z,-0.30
2023-01-28T19:53:52.897Z,-0.30
2023-01-28T19:56:23.222Z,-0.30
2023-01-28T19:58:50.480Z,-0.30
2023-01-28T20:01:21.344Z,-0.30
2023-01-28T20:03:55.155Z,-0.20
2023-01-28T20:06:24.080Z,-0.30
2023-01-28T20:08:52.780Z,-0.40
2023-01-28T20:11:20.145Z,-0.30
2023-01-28T20:13:48.381Z,-0.30
2023-01-28T20:16:21.607Z,-0.30
2023-01-28T20:18:54.384Z,-0.40
2023-01-28T20:21:22.428Z,-0.40
2023-01-28T20:23:51.650Z,-0.40
2023-01-28T20:26:23.758Z,-0.40
2023-01-28T20:28:51.210Z,-0.30
2023-01-28T20:31:19.722Z,-0.40
2023-01-28T20:33:47.295Z,-0.40
2023-01-28T20:36:15.140Z,-0.40
2023-01-28T20:38:45.058Z,-0.40
2023-01-28T20:41:15.145Z,-0.50
2023-01-28T20:43:44.612Z,-0.50
2023-01-28T20:46:16.639Z,-0.50
2023-01-28T20:48:44.147Z,-0.50
2023-01-28T20:51:21.496Z,-0.50
2023-01-28T20:53:49.901Z,-0.50
2023-01-28T20:56:19.949Z,-0.50
2023-01-28T20:58:49.595Z,-0.50
2023-01-28T21:01:24.722Z,-0.60
2023-01-28T21:03:52.571Z,-0.60
2023-01-28T21:06:20.186Z,-0.60
2023-01-28T21:08:47.511Z,-0.60
2023-01-28T21:11:14.870Z,-0.70
2023-01-28T21:13:42.165Z,-0.70
2023-01-28T21:16:09.475Z,-0.70
2023-01-28T21:18:36.826Z,-0.70
2023-01-28T21:21:06.273Z,-0.70
2023-01-28T21:23:33.627Z,-0.70
2023-01-28T21:26:05.637Z,-0.70
2023-01-28T21:28:33.072Z,-0.70
2023-01-28T21:31:13.953Z,-0.70
2023-01-28T21:33:41.360Z,-0.80
2023-01-28T21:36:14.452Z,-0.70
2023-01-28T21:38:42.166Z,-0.70
2023-01-28T21:41:10.450Z,-0.70
2023-01-28T21:43:38.319Z,-0.80
2023-01-28T21:46:06.244Z,-0.70
2023-01-28T21:48:33.772Z,-0.70
2023-01-28T21:51:23.984Z,-0.70
2023-01-28T21:53:51.357Z,-0.70
2023-01-28T21:56:18.678Z,-0.70
2023-01-28T21:59:04.418Z,-0.70
2023-01-28T22:01:31.799Z,-0.80
2023-01-28T22:03:59.253Z,-0.80
2023-01-28T22:06:27.030Z,-0.80
2023-01-28T22:08:54.715Z,-0.80
2023-01-28T22:11:22.361Z,-0.90
2023-01-28T22:13:50.023Z,-0.90
2023-01-28T22:16:17.841Z,-0.90
2023-01-28T22:18:46.838Z,-0.90
2023-01-28T22:21:14.129Z,-0.90
2023-01-28T22:23:41.476Z,-0.90
2023-01-28T22:26:08.824Z,-0.90
2023-01-28T22:28:37.955Z,-0.80
2023-01-28T22:31:16.435Z,-0.90
2023-01-28T22:33:44.291Z,-1.00
2023-01-28T22:36:15.901Z,-1.00
2023-01-28T22:38:45.062Z,-0.90
2023-01-28T22:41:15.603Z,-0.80
2023-01-28T22:43:42.899Z,-0.90
2023-01-28T22:46:10.599Z,-1.00
2023-01-28T22:48:39.127Z,-1.00
2023-01-28T22:51:10.425Z,-1.10
2023-01-28T22:53:37.667Z,-1.10
2023-01-28T22:56:05.230Z,-1.00
2023-01-28T22:58:32.547Z,-1.10
2023-01-28T23:01:00.215Z,-1.00
2023-01-28T23:03:27.672Z,-1.10
2023-01-28T23:05:59.971Z,-1.10
2023-01-28T23:08:28.529Z,-1.10
2023-01-28T23:10:59.807Z,-1.20
2023-01-28T23:13:27.872Z,-1.20
2023-01-28T23:16:13.891Z,-1.30
2023-01-28T23:18:59.570Z,-1.30
2023-01-28T23:21:47.224Z,-1.20
2023-01-28T23:24:19.824Z,-1.30
2023-01-28T23:26:55.627Z,-1.20
2023-01-28T23:29:25.096Z,-1.20
2023-01-28T23:32:01.179Z,-1.20
2023-01-28T23:34:37.304Z,-1.20
2023-01-28T23:37:07.383Z,-1.20
2023-01-28T23:39:35.104Z,-1.30
2023-01-28T23:42:12.490Z,-1.30
2023-01-28T23:44:39.951Z,-1.30
2023-01-28T23:47:07.452Z,-1.30
2023-01-28T23:49:34.735Z,-1.30
2023-01-28T23:52:03.061Z,-1.40
2023-01-28T23:54:30.979Z,-1.40
2023-01-28T23:56:58.762Z,-1.40
2023-01-28T23:59:26.125Z,-1.30
